Time;durP1;ratioP1;P1;durP2;ratioP2;P2;SDS_P1;SDS_P2;PMS_P1;PMS_P2;Temp;Humidity;BMP_temperature;BMP_pressure;BME280_temperature;BME280_humidity;BME280_pressure;Samples;Min_cycle;Max_cycle;Signal;HPM_P1;HPM_P2
2023/01/04 00:02:07;;;;;;;2.40;0.88;;;21.00;39.70;;;;;;5026138;28;20045;-59
2023/01/04 00:04:33;;;;;;;1.83;0.70;;;21.00;40.30;;;;;;5030301;28;20051;-57
2023/01/04 00:06:58;;;;;;;1.38;0.57;;;21.00;40.40;;;;;;5028891;28;20516;-57
2023/01/04 00:09:24;;;;;;;1.60;0.60;;;21.00;39.80;;;;;;5028234;28;20026;-58
2023/01/04 00:11:50;;;;;;;2.90;0.93;;;21.00;39.80;;;;;;5026821;28;20034;-57
2023/01/04 00:14:17;;;;;;;1.58;0.90;;;20.90;39.80;;;;;;5029464;28;20461;-56
2023/01/04 00:16:43;;;;;;;2.15;1.00;;;21.00;39.90;;;;;;5027314;28;20049;-59
2023/01/04 00:19:10;;;;;;;1.98;0.70;;;20.90;40.60;;;;;;5028230;28;20467;-57
2023/01/04 00:21:36;;;;;;;4.43;0.73;;;21.00;40.10;;;;;;5029420;28;20041;-59
2023/01/04 00:24:02;;;;;;;2.75;0.75;;;20.90;40.00;;;;;;5030457;28;20353;-60
2023/01/04 00:26:32;;;;;;;1.98;0.65;;;20.90;40.10;;;;;;5029843;28;20449;-60
2023/01/04 00:29:04;;;;;;;1.45;0.60;;;20.90;40.10;;;;;;5028093;28;20471;-60
2023/01/04 00:31:30;;;;;;;1.48;0.60;;;20.90;40.20;;;;;;5029590;28;20040;-60
2023/01/04 00:33:58;;;;;;;1.40;0.60;;;20.90;40.20;;;;;;5031459;28;20044;-59
2023/01/04 00:36:26;;;;;;;2.28;0.70;;;20.90;40.20;;;;;;5030306;28;20052;-59
2023/01/04 00:39:08;;;;;;;2.83;0.73;;;20.90;40.30;;;;;;5035024;28;20033;-58
2023/01/04 00:41:37;;;;;;;1.58;0.60;;;20.90;40.40;;;;;;5031805;28;20033;-57
2023/01/04 00:44:07;;;;;;;2.97;0.88;;;20.80;40.40;;;;;;5031833;28;20514;-60
2023/01/04 00:46:33;;;;;;;2.63;0.75;;;20.80;40.40;;;;;;5030450;28;20041;-58
2023/01/04 00:49:01;;;;;;;1.15;0.50;;;20.90;40.50;;;;;;5032501;28;20108;-60
2023/01/04 00:51:28;;;;;;;2.33;0.60;;;20.80;40.60;;;;;;5016436;28;20079;-60
2023/01/04 00:53:54;;;;;;;2.42;0.90;;;20.80;40.60;;;;;;5023212;28;20049;-58
2023/01/04 00:56:20;;;;;;;2.13;1.00;;;20.80;40.60;;;;;;5019904;28;20068;-59
2023/01/04 00:58:46;;;;;;;0.95;0.50;;;20.80;40.70;;;;;;5029431;28;20036;-58
2023/01/04 01:01:12;;;;;;;1.38;0.65;;;20.80;40.70;;;;;;5033447;28;20030;-59
2023/01/04 01:03:38;;;;;;;1.50;0.60;;;20.80;40.80;;;;;;5031969;28;20033;-59
2023/01/04 01:06:06;;;;;;;1.83;0.70;;;20.80;40.90;;;;;;5032353;28;20327;-61
2023/01/04 01:08:32;;;;;;;1.83;0.47;;;20.80;40.90;;;;;;5025834;28;20036;-61
2023/01/04 01:11:03;;;;;;;2.40;0.95;;;20.80;41.00;;;;;;5033320;28;20476;-61
2023/01/04 01:13:29;;;;;;;1.42;0.68;;;20.80;41.00;;;;;;5033721;28;20050;-60
2023/01/04 01:15:55;;;;;;;1.48;0.60;;;20.80;41.10;;;;;;5033088;28;20331;-60
2023/01/04 01:18:20;;;;;;;3.35;0.75;;;20.80;41.10;;;;;;5032017;28;20088;-59
2023/01/04 01:20:46;;;;;;;0.90;0.60;;;20.80;41.20;;;;;;5032845;28;20519;-58
2023/01/04 01:23:14;;;;;;;0.73;0.40;;;20.80;41.20;;;;;;5032559;28;20452;-60
2023/01/04 01:25:41;;;;;;;1.33;0.70;;;20.80;41.30;;;;;;5032172;28;20480;-60
2023/01/04 01:28:07;;;;;;;1.23;0.43;;;20.80;41.30;;;;;;5029859;28;20036;-58
2023/01/04 01:30:37;;;;;;;1.95;0.70;;;20.80;41.40;;;;;;5030252;28;20045;-60
2023/01/04 01:33:03;;;;;;;0.88;0.52;;;20.70;41.40;;;;;;5030617;28;20030;-59
2023/01/04 01:35:31;;;;;;;1.05;0.47;;;20.70;41.50;;;;;;5031706;28;20091;-61
2023/01/04 01:37:56;;;;;;;1.25;0.50;;;20.70;41.50;;;;;;5029688;28;20301;-59
2023/01/04 01:40:22;;;;;;;1.55;0.60;;;20.70;41.50;;;;;;5028093;28;20064;-58
2023/01/04 01:42:48;;;;;;;1.55;0.80;;;20.70;41.60;;;;;;5033565;28;20353;-59
2023/01/04 01:45:32;;;;;;;0.85;0.47;;;20.70;41.60;;;;;;5014877;28;20037;-61
2023/01/04 01:48:05;;;;;;;1.48;0.50;;;20.70;41.70;;;;;;5031665;28;20029;-57
2023/01/04 01:50:39;;;;;;;1.08;0.40;;;20.70;41.80;;;;;;5030727;28;20377;-59
2023/01/04 01:53:07;;;;;;;1.95;0.65;;;20.70;41.80;;;;;;5029941;28;20018;-56
2023/01/04 01:55:34;;;;;;;1.50;0.40;;;20.70;41.90;;;;;;5027979;28;20034;-55
2023/01/04 01:58:04;;;;;;;1.05;0.50;;;20.70;41.90;;;;;;5031436;28;20037;-58
2023/01/04 02:00:30;;;;;;;1.13;0.50;;;20.70;42.00;;;;;;5031951;28;20029;-60
2023/01/04 02:03:14;;;;;;;0.90;0.40;;;20.70;42.00;;;;;;5031832;28;20018;-60
2023/01/04 02:05:42;;;;;;;1.15;0.55;;;20.70;42.10;;;;;;5027186;28;20076;-57
2023/01/04 02:08:12;;;;;;;0.55;0.35;;;20.70;42.10;;;;;;5031496;28;20025;-59
2023/01/04 02:10:38;;;;;;;0.70;0.40;;;20.60;42.10;;;;;;5032734;28;20137;-58
2023/01/04 02:13:16;;;;;;;0.45;0.35;;;20.60;42.20;;;;;;5029991;28;20128;-58
2023/01/04 02:16:22;;;;;;;0.35;0.32;;;20.60;42.20;;;;;;5012520;28;20037;-57
2023/01/04 02:19:00;;;;;;;0.85;0.47;;;20.60;42.20;;;;;;5025080;28;20049;-57
2023/01/04 02:21:57;;;;;;;1.48;0.57;;;20.60;42.30;;;;;;5030550;28;20037;-57
2023/01/04 02:24:47;;;;;;;1.13;0.60;;;20.60;42.30;;;;;;5030384;28;20029;-60
2023/01/04 02:27:15;;;;;;;0.93;0.50;;;20.60;43.00;;;;;;5032230;28;20049;-59
2023/01/04 02:29:50;;;;;;;3.35;0.50;;;20.60;42.50;;;;;;5031168;28;20029;-60
2023/01/04 02:32:58;;;;;;;1.02;0.60;;;20.60;42.50;;;;;;5030671;28;20017;-60
2023/01/04 02:35:27;;;;;;;1.25;0.40;;;20.60;42.60;;;;;;5006068;28;20037;-59
2023/01/04 02:38:21;;;;;;;0.38;0.20;;;20.60;42.60;;;;;;5034747;28;20057;-59
2023/01/04 02:41:12;;;;;;;1.15;0.35;;;20.60;42.60;;;;;;5028036;28;20033;-58
2023/01/04 02:46:45;;;;;;;0.65;0.35;;;20.60;42.80;;;;;;5029382;28;20025;-59
2023/01/04 02:51:55;;;;;;;0.60;0.40;;;20.50;42.90;;;;;;5026741;28;20053;-60
2023/01/04 02:54:26;;;;;;;1.05;0.35;;;20.50;42.90;;;;;;5030581;28;20392;-56
2023/01/04 02:57:21;;;;;;;0.20;0.20;;;20.50;43.00;;;;;;5030811;28;20045;-58
2023/01/04 03:00:29;;;;;;;1.02;0.40;;;20.50;43.00;;;;;;5027655;28;20022;-57
2023/01/04 03:06:24;;;;;;;1.02;0.30;;;20.50;43.20;;;;;;5027769;28;20033;-56
2023/01/04 03:09:02;;;;;;;0.47;0.30;;;20.50;43.20;;;;;;5014659;28;20036;-60
2023/01/04 03:14:25;;;;;;;;;;;20.50;43.30;;;;;;5030459;28;20038;-57
2023/01/04 03:16:53;;;;;;;0.77;0.30;;;20.50;43.30;;;;;;5028497;28;20000;-57
2023/01/04 03:35:21;;;;;;;0.73;0.30;;;20.50;43.50;;;;;;5029029;28;20437;-58
2023/01/04 03:35:59;;;;;;;0.60;0.25;;;20.40;43.70;;;;;;5030169;28;20053;-59
2023/01/04 03:50:22;;;;;;;0.32;0.20;;;20.50;44.00;;;;;;5031100;28;20033;-55
2023/01/04 03:52:50;;;;;;;0.68;0.30;;;20.40;44.00;;;;;;5025271;28;20052;-59
2023/01/04 03:55:17;;;;;;;0.50;0.20;;;20.40;44.10;;;;;;5028777;28;20025;-60
2023/01/04 03:57:44;;;;;;;1.15;0.40;;;20.40;44.10;;;;;;5028839;28;20091;-60
2023/01/04 04:00:15;;;;;;;0.55;0.13;;;20.40;44.20;;;;;;5021538;28;20037;-60
2023/01/04 04:02:43;;;;;;;0.85;0.30;;;20.40;44.30;;;;;;5029213;28;20101;-61
2023/01/04 04:10:48;;;;;;;0.13;0.10;;;20.40;44.40;;;;;;5024519;28;20034;-59
2023/01/04 04:13:14;;;;;;;0.40;0.20;;;20.40;44.40;;;;;;5026994;28;20045;-58
2023/01/04 04:15:40;;;;;;;0.70;0.30;;;20.40;44.50;;;;;;5029233;28;20034;-58
2023/01/04 04:18:06;;;;;;;0.17;0.13;;;20.40;44.50;;;;;;5033500;28;20360;-57
2023/01/04 04:20:32;;;;;;;1.23;0.35;;;20.40;44.60;;;;;;5019839;28;20037;-58
2023/01/04 04:22:57;;;;;;;0.20;0.20;;;20.40;44.60;;;;;;5033634;28;20859;-59
2023/01/04 04:25:23;;;;;;;1.30;0.20;;;20.40;44.70;;;;;;5034326;28;20029;-59
2023/01/04 04:27:49;;;;;;;0.40;0.20;;;20.40;44.70;;;;;;5025874;28;20036;-61
2023/01/04 04:30:15;;;;;;;0.30;0.10;;;20.40;44.70;;;;;;5031540;28;20448;-58
2023/01/04 04:32:41;;;;;;;0.50;0.30;;;20.40;45.40;;;;;;5034071;28;20364;-58
2023/01/04 04:35:07;;;;;;;0.30;0.30;;;20.40;44.80;;;;;;5031182;28;20033;-59
2023/01/04 04:37:33;;;;;;;1.15;0.10;;;20.40;44.90;;;;;;5032516;28;20453;-59
2023/01/04 04:40:00;;;;;;;0.32;0.20;;;20.40;44.90;;;;;;5031425;28;20033;-60
2023/01/04 04:42:26;;;;;;;0.63;0.30;;;20.40;45.00;;;;;;5034225;28;20039;-59
2023/01/04 04:44:52;;;;;;;0.43;0.20;;;20.40;45.00;;;;;;5031511;28;20034;-57
2023/01/04 04:47:18;;;;;;;0.70;0.20;;;20.40;45.10;;;;;;5034983;28;20380;-61
2023/01/04 04:49:44;;;;;;;0.65;0.20;;;20.40;45.10;;;;;;5032438;28;20033;-59
2023/01/04 04:52:09;;;;;;;0.43;0.30;;;20.40;45.20;;;;;;5016252;28;20095;-58
2023/01/04 04:54:35;;;;;;;0.40;0.20;;;20.40;45.20;;;;;;5033866;28;20047;-59
2023/01/04 04:57:01;;;;;;;0.43;0.30;;;20.40;45.30;;;;;;5033382;28;20117;-57
2023/01/04 04:59:27;;;;;;;0.20;0.13;;;20.40;45.30;;;;;;5033139;28;20124;-60
2023/01/04 05:01:53;;;;;;;0.38;0.20;;;20.40;45.40;;;;;;5034031;28;20099;-61
2023/01/04 05:04:18;;;;;;;0.63;0.30;;;20.40;45.50;;;;;;5028241;28;20026;-60
2023/01/04 05:06:46;;;;;;;1.17;0.38;;;20.40;45.50;;;;;;5013891;28;20407;-62
2023/01/04 05:09:13;;;;;;;0.43;0.22;;;20.40;45.50;;;;;;5033376;28;20017;-61
2023/01/04 05:14:24;;;;;;;1.30;0.28;;;20.30;45.60;;;;;;5030319;28;20045;-59
2023/01/04 05:16:51;;;;;;;0.65;0.32;;;20.30;45.60;;;;;;5033820;28;20033;-59
2023/01/04 05:19:17;;;;;;;0.57;0.20;;;20.40;45.80;;;;;;5031823;28;20061;-59
2023/01/04 05:21:42;;;;;;;0.20;0.20;;;20.40;45.80;;;;;;5031852;28;20052;-58
2023/01/04 05:24:11;;;;;;;0.25;0.20;;;20.30;45.90;;;;;;5028934;28;20033;-60
2023/01/04 05:26:37;;;;;;;0.30;0.20;;;20.30;45.90;;;;;;5030833;28;20029;-55
2023/01/04 05:29:03;;;;;;;0.47;0.30;;;20.30;45.90;;;;;;5033138;28;20033;-61
2023/01/04 05:31:29;;;;;;;0.60;0.17;;;20.30;45.90;;;;;;5031586;28;20032;-57
2023/01/04 05:33:55;;;;;;;0.30;0.25;;;20.30;45.90;;;;;;5029561;28;20414;-59
2023/01/04 05:36:21;;;;;;;0.52;0.30;;;20.30;46.00;;;;;;5031707;28;20034;-60
2023/01/04 05:38:46;;;;;;;0.15;0.13;;;20.30;46.10;;;;;;5032892;28;20030;-59
2023/01/04 05:43:57;;;;;;;0.25;0.20;;;20.30;46.20;;;;;;5033012;28;20037;-59
2023/01/04 05:46:24;;;;;;;0.95;0.30;;;20.30;46.20;;;;;;5032387;28;20536;-60
2023/01/04 05:48:49;;;;;;;0.47;0.10;;;20.30;46.30;;;;;;5032655;28;20127;-56
2023/01/04 05:51:15;;;;;;;0.63;0.30;;;20.30;46.30;;;;;;5014193;28;20069;-57
2023/01/04 05:53:41;;;;;;;0.75;0.20;;;20.30;46.40;;;;;;5032102;28;20033;-60
2023/01/04 05:56:07;;;;;;;1.02;0.20;;;20.30;46.40;;;;;;5032504;28;20412;-59
2023/01/04 05:58:33;;;;;;;0.50;0.30;;;20.30;46.50;;;;;;5028076;28;21602;-59
2023/01/04 06:00:59;;;;;;;0.65;0.20;;;20.30;46.60;;;;;;5027711;28;20040;-57
2023/01/04 06:03:25;;;;;;;0.28;0.20;;;20.30;46.60;;;;;;5031107;28;20036;-59
2023/01/04 06:05:51;;;;;;;0.10;0.10;;;20.30;46.60;;;;;;5031600;28;20037;-59
2023/01/04 06:08:17;;;;;;;0.57;0.20;;;20.30;46.70;;;;;;5032140;28;20044;-60
2023/01/04 06:10:43;;;;;;;0.10;0.10;;;20.30;46.70;;;;;;5031319;28;20472;-59
2023/01/04 06:13:09;;;;;;;0.20;0.10;;;20.30;46.80;;;;;;5029419;28;20103;-58
2023/01/04 06:15:34;;;;;;;1.75;0.20;;;20.30;46.80;;;;;;5030407;28;20029;-59
2023/01/04 06:18:00;;;;;;;0.35;0.20;;;20.30;46.90;;;;;;5031215;28;20034;-60
2023/01/04 06:20:26;;;;;;;0.22;0.20;;;20.30;46.90;;;;;;5032388;28;20079;-54
2023/01/04 06:22:52;;;;;;;0.20;0.20;;;20.30;46.90;;;;;;5030580;28;20041;-60
2023/01/04 06:25:18;;;;;;;0.50;0.20;;;20.30;47.00;;;;;;5030437;28;20361;-59
2023/01/04 06:27:44;;;;;;;0.75;0.30;;;20.30;47.00;;;;;;5028391;28;20036;-59
2023/01/04 06:30:10;;;;;;;0.65;0.30;;;20.30;47.00;;;;;;5031191;28;20039;-57
2023/01/04 06:32:36;;;;;;;0.65;0.30;;;20.30;47.10;;;;;;5029500;28;20037;-58
2023/01/04 06:35:01;;;;;;;0.38;0.10;;;20.30;47.10;;;;;;5029896;28;20033;-59
2023/01/04 06:37:27;;;;;;;0.38;0.10;;;20.30;47.20;;;;;;5031305;28;20435;-58
2023/01/04 06:39:53;;;;;;;0.13;0.13;;;20.30;47.20;;;;;;5029988;28;20017;-59
2023/01/04 06:45:07;;;;;;;0.88;0.30;;;20.30;47.30;;;;;;5029986;28;20084;-58
2023/01/04 06:47:32;;;;;;;0.52;0.30;;;20.30;47.30;;;;;;5029886;28;20080;-61
2023/01/04 06:49:58;;;;;;;0.93;0.30;;;20.20;47.30;;;;;;5030329;28;20445;-60
2023/01/04 06:52:24;;;;;;;0.70;0.25;;;20.20;47.40;;;;;;5032138;28;20021;-58
2023/01/04 06:54:50;;;;;;;0.40;0.22;;;20.20;47.40;;;;;;5013857;28;20456;-60
2023/01/04 06:57:15;;;;;;;1.20;0.22;;;20.20;47.50;;;;;;5014176;28;20052;-56
2023/01/04 06:59:41;;;;;;;0.50;0.17;;;20.30;47.60;;;;;;5028331;28;20106;-59
2023/01/04 07:02:08;;;;;;;1.10;0.38;;;20.20;47.50;;;;;;5031508;28;20438;-58
2023/01/04 07:04:34;;;;;;;0.15;0.10;;;20.20;47.60;;;;;;5029605;28;20457;-60
2023/01/04 07:07:01;;;;;;;0.30;0.20;;;20.20;47.60;;;;;;5027501;28;20028;-60
2023/01/04 07:09:27;;;;;;;0.65;0.40;;;20.20;47.60;;;;;;5029844;28;20052;-58
2023/01/04 07:11:53;;;;;;;0.35;0.17;;;20.20;47.60;;;;;;5028586;28;20025;-56
2023/01/04 07:14:18;;;;;;;0.63;0.22;;;20.20;47.70;;;;;;5029747;28;20120;-58
2023/01/04 07:16:44;;;;;;;0.90;0.40;;;20.20;47.70;;;;;;5030977;28;20445;-57
2023/01/04 07:19:11;;;;;;;0.70;0.30;;;20.20;47.80;;;;;;5028079;28;20480;-62
2023/01/04 07:21:37;;;;;;;0.82;0.20;;;20.20;47.90;;;;;;5021193;28;20040;-58
2023/01/04 07:24:03;;;;;;;0.60;0.30;;;20.20;47.90;;;;;;5020326;28;20086;-58
2023/01/04 07:26:29;;;;;;;0.60;0.20;;;20.20;47.90;;;;;;5029996;28;20108;-54
2023/01/04 07:31:39;;;;;;;0.50;0.25;;;20.20;48.00;;;;;;5027741;28;20445;-60
2023/01/04 07:34:05;;;;;;;1.38;0.40;;;20.20;48.00;;;;;;5033136;28;20052;-56
2023/01/04 07:36:31;;;;;;;0.50;0.20;;;20.20;48.00;;;;;;5025524;28;20033;-58
2023/01/04 07:39:00;;;;;;;1.17;0.50;;;20.20;48.10;;;;;;5008615;28;20048;-60
2023/01/04 07:41:26;;;;;;;0.98;0.40;;;20.20;48.10;;;;;;5026726;28;20033;-58
2023/01/04 07:43:52;;;;;;;4.45;0.50;;;20.20;48.10;;;;;;5010238;28;20036;-58
2023/01/04 07:46:18;;;;;;;3.17;0.50;;;20.20;48.10;;;;;;5023119;28;20105;-60
2023/01/04 07:48:44;;;;;;;2.05;0.55;;;20.20;48.20;;;;;;5025626;28;20033;-60
2023/01/04 07:51:10;;;;;;;2.45;0.50;;;20.20;48.20;;;;;;5017338;28;20025;-58
2023/01/04 07:53:36;;;;;;;2.53;0.60;;;20.20;48.80;;;;;;5024928;28;20034;-57
2023/01/04 07:56:02;;;;;;;2.58;0.70;;;20.20;48.30;;;;;;5022331;28;20445;-59
2023/01/04 07:58:31;;;;;;;1.63;0.70;;;20.20;48.30;;;;;;5024396;28;20060;-58
2023/01/04 08:01:08;;;;;;;1.65;0.65;;;20.20;48.20;;;;;;5021209;28;20331;-58
2023/01/04 08:03:34;;;;;;;4.50;0.90;;;20.30;48.10;;;;;;5024288;28;20026;-59
2023/01/04 08:06:05;;;;;;;1.92;0.90;;;20.30;48.10;;;;;;5025116;28;20437;-58
2023/01/04 08:08:31;;;;;;;2.17;0.60;;;20.30;48.00;;;;;;5028116;28;20044;-59
2023/01/04 08:11:05;;;;;;;2.38;0.82;;;20.40;48.00;;;;;;5025368;28;20038;-57
2023/01/04 08:13:31;;;;;;;3.67;0.70;;;20.40;48.50;;;;;;5025561;28;20049;-60
2023/01/04 08:15:57;;;;;;;1.92;0.80;;;20.40;47.80;;;;;;5025329;28;20463;-59
2023/01/04 08:18:24;;;;;;;3.30;0.70;;;20.50;47.80;;;;;;5029601;28;20087;-60
2023/01/04 08:20:50;;;;;;;2.60;0.90;;;20.50;47.70;;;;;;5033762;28;20103;-60
2023/01/04 08:23:17;;;;;;;1.67;0.82;;;20.60;47.60;;;;;;5036336;28;20053;-59
2023/01/04 08:25:43;;;;;;;3.17;0.95;;;20.70;47.70;;;;;;5032381;28;20491;-60
2023/01/04 08:28:08;;;;;;;2.15;0.68;;;20.70;47.50;;;;;;5032815;28;20116;-60
2023/01/04 08:30:34;;;;;;;4.30;1.10;;;20.80;47.50;;;;;;5025888;28;20350;-59
2023/01/04 08:33:00;;;;;;;2.88;1.00;;;20.90;47.40;;;;;;5032587;28;20103;-60
2023/01/04 08:35:26;;;;;;;1.77;0.70;;;20.90;47.40;;;;;;5032804;28;20481;-58
2023/01/04 08:37:52;;;;;;;3.78;1.00;;;21.00;47.30;;;;;;5032849;28;20056;-60
2023/01/04 08:40:17;;;;;;;3.53;0.90;;;21.00;47.20;;;;;;5025375;28;20105;-60
2023/01/04 08:42:43;;;;;;;3.10;0.82;;;21.10;47.20;;;;;;5024479;28;20025;-59
2023/01/04 08:45:09;;;;;;;2.05;0.60;;;21.20;47.10;;;;;;5028150;28;20057;-58
2023/01/04 08:47:35;;;;;;;2.50;0.90;;;21.20;47.00;;;;;;5025124;28;20152;-62
2023/01/04 08:50:01;;;;;;;1.55;0.60;;;21.30;46.90;;;;;;5025514;28;20116;-60
2023/01/04 08:52:27;;;;;;;1.98;0.63;;;21.40;46.80;;;;;;5025899;28;20041;-61
2023/01/04 08:54:53;;;;;;;3.53;0.43;;;21.40;46.80;;;;;;5031084;28;20035;-58
2023/01/04 08:57:19;;;;;;;1.65;0.57;;;21.50;46.60;;;;;;5020737;28;20068;-58
2023/01/04 08:59:44;;;;;;;1.88;0.60;;;21.50;46.50;;;;;;5026122;28;20034;-61
2023/01/04 09:02:25;;;;;;;1.50;0.50;;;21.60;46.60;;;;;;5028078;28;20112;-60
2023/01/04 09:04:51;;;;;;;2.42;0.55;;;21.70;46.60;;;;;;5037065;28;20036;-59
2023/01/04 09:07:17;;;;;;;2.17;0.60;;;21.70;46.60;;;;;;5035930;28;20468;-61
2023/01/04 09:09:43;;;;;;;0.82;0.40;;;21.70;46.50;;;;;;5053851;28;20052;-61
2023/01/04 09:12:09;;;;;;;2.67;0.55;;;21.80;46.50;;;;;;5057621;28;20037;-60
2023/01/04 09:14:35;;;;;;;1.73;0.57;;;21.80;46.50;;;;;;5052728;28;20029;-61
2023/01/04 09:17:01;;;;;;;0.65;0.35;;;21.90;46.40;;;;;;5037610;28;20461;-60
2023/01/04 09:19:27;;;;;;;1.88;0.52;;;21.90;46.40;;;;;;5036393;28;20453;-60
2023/01/04 09:21:53;;;;;;;1.75;0.70;;;21.90;46.30;;;;;;5025439;28;20047;-61
2023/01/04 09:24:19;;;;;;;0.98;0.50;;;22.00;46.30;;;;;;5043108;28;20025;-60
2023/01/04 09:26:46;;;;;;;1.75;0.40;;;22.00;46.20;;;;;;5053376;28;20025;-60
2023/01/04 09:29:12;;;;;;;1.35;0.50;;;22.10;46.20;;;;;;5036788;28;20349;-60
2023/01/04 09:31:37;;;;;;;1.05;0.43;;;22.10;46.10;;;;;;5037954;28;20048;-60
2023/01/04 09:34:03;;;;;;;1.08;0.52;;;22.10;46.10;;;;;;5037341;28;20025;-60
2023/01/04 09:36:29;;;;;;;0.85;0.30;;;22.20;46.10;;;;;;5056895;28;20028;-60
2023/01/04 09:38:55;;;;;;;1.42;0.35;;;22.20;46.00;;;;;;5057664;28;20379;-57
2023/01/04 09:41:25;;;;;;;0.88;0.30;;;22.20;45.90;;;;;;5040149;28;20025;-60
2023/01/04 09:43:59;;;;;;;0.60;0.30;;;22.20;45.90;;;;;;5037122;28;20432;-60
2023/01/04 09:46:51;;;;;;;0.85;0.30;;;22.30;45.90;;;;;;5029830;28;20436;-58
2023/01/04 09:49:29;;;;;;;2.83;0.68;;;22.30;45.80;;;;;;5029659;28;20025;-60
2023/01/04 09:52:13;;;;;;;1.15;0.40;;;22.30;45.80;;;;;;5037396;28;20116;-59
2023/01/04 09:55:02;;;;;;;1.40;0.50;;;22.30;45.80;;;;;;5037218;28;20029;-61
2023/01/04 09:57:32;;;;;;;0.95;0.40;;;22.30;45.80;;;;;;5019100;28;20048;-59
2023/01/04 10:00:23;;;;;;;1.10;0.65;;;22.40;45.80;;;;;;5036862;28;20090;-60
2023/01/04 10:02:59;;;;;;;1.60;0.50;;;22.40;45.70;;;;;;5037460;28;20056;-61
2023/01/04 10:05:30;;;;;;;3.03;0.40;;;22.40;45.80;;;;;;5047460;28;20036;-60
2023/01/04 10:07:56;;;;;;;0.60;0.30;;;22.40;45.70;;;;;;5036739;28;20445;-59
2023/01/04 10:10:55;;;;;;;0.90;0.50;;;22.40;45.80;;;;;;5036641;28;20033;-59
2023/01/04 10:13:58;;;;;;;0.25;0.25;;;22.40;45.80;;;;;;5032596;28;20063;-62
2023/01/04 10:16:51;;;;;;;0.68;0.35;;;22.40;45.80;;;;;;5036300;28;20314;-59
2023/01/04 10:19:38;;;;;;;0.82;0.32;;;22.40;45.80;;;;;;5027250;28;20077;-59
2023/01/04 10:22:14;;;;;;;2.15;0.30;;;22.40;45.80;;;;;;5017055;28;20034;-61
2023/01/04 10:24:52;;;;;;;0.63;0.40;;;22.40;45.80;;;;;;5016516;28;20034;-59
2023/01/04 10:27:44;;;;;;;0.90;0.47;;;22.40;45.90;;;;;;5016668;28;20030;-61
2023/01/04 10:30:54;;;;;;;0.93;0.50;;;22.40;45.90;;;;;;4986245;28;20072;-56
2023/01/04 10:33:41;;;;;;;1.48;0.50;;;22.40;45.90;;;;;;5008502;28;20041;-59
2023/01/04 10:36:20;;;;;;;1.15;0.32;;;22.40;45.90;;;;;;5036720;28;20052;-60
2023/01/04 10:38:52;;;;;;;0.75;0.47;;;22.40;45.90;;;;;;5036450;28;20036;-60
2023/01/04 10:41:25;;;;;;;0.65;0.40;;;22.40;46.00;;;;;;5037387;28;20336;-59
2023/01/04 10:44:12;;;;;;;0.70;0.30;;;22.40;46.00;;;;;;5035857;28;20034;-61
2023/01/04 10:46:59;;;;;;;0.77;0.30;;;22.40;46.10;;;;;;5036134;28;20026;-59
2023/01/04 10:49:54;;;;;;;1.42;0.40;;;22.40;46.10;;;;;;5044221;28;20338;-59
2023/01/04 10:52:30;;;;;;;0.55;0.30;;;22.40;46.10;;;;;;5056222;28;20446;-61
2023/01/04 10:55:02;;;;;;;0.40;0.30;;;22.40;46.20;;;;;;5056397;28;20029;-61
2023/01/04 10:57:38;;;;;;;0.98;0.22;;;22.30;46.20;;;;;;5051507;28;20095;-59
2023/01/04 11:00:24;;;;;;;0.80;0.30;;;22.30;46.20;;;;;;5035692;28;20030;-60
2023/01/04 11:03:07;;;;;;;0.95;0.40;;;22.30;46.20;;;;;;5039623;28;20490;-59
2023/01/04 11:05:37;;;;;;;1.83;0.40;;;22.30;46.30;;;;;;5037951;28;20461;-59
2023/01/04 11:08:15;;;;;;;1.27;0.40;;;22.30;46.30;;;;;;5047099;28;20025;-58
2023/01/04 11:10:51;;;;;;;0.70;0.40;;;22.30;46.40;;;;;;5029323;28;20037;-60
2023/01/04 11:13:17;;;;;;;0.75;0.30;;;22.30;46.50;;;;;;5017409;28;20049;-59
2023/01/04 11:15:46;;;;;;;0.40;0.20;;;22.30;46.50;;;;;;5033620;28;20083;-59
2023/01/04 11:18:13;;;;;;;1.30;0.40;;;22.30;46.70;;;;;;5033856;28;20037;-53
2023/01/04 11:20:40;;;;;;;0.85;0.38;;;22.30;46.90;;;;;;5020492;28;20338;-56
2023/01/04 11:23:17;;;;;;;1.20;0.40;;;22.30;47.20;;;;;;5027793;28;20056;-55
2023/01/04 11:25:57;;;;;;;1.25;0.50;;;22.30;47.30;;;;;;5034313;28;20025;-56
2023/01/04 11:28:37;;;;;;;0.95;0.40;;;22.30;47.30;;;;;;5035885;28;20057;-55
2023/01/04 11:31:16;;;;;;;0.47;0.25;;;22.30;47.20;;;;;;5040353;28;20068;-54
2023/01/04 11:33:58;;;;;;;0.38;0.28;;;22.30;47.20;;;;;;5028165;28;20060;-57
2023/01/04 11:36:43;;;;;;;1.08;0.20;;;22.30;47.20;;;;;;5026009;28;20048;-58
2023/01/04 11:39:36;;;;;;;0.70;0.40;;;22.30;47.20;;;;;;5028157;28;20033;-55
2023/01/04 11:42:04;;;;;;;1.05;0.40;;;22.30;47.20;;;;;;5022134;28;20982;-57
2023/01/04 11:44:32;;;;;;;0.45;0.30;;;22.30;47.90;;;;;;5024985;28;20033;-56
2023/01/04 11:47:18;;;;;;;0.40;0.25;;;22.20;47.20;;;;;;5026295;28;20044;-56
2023/01/04 11:49:44;;;;;;;0.95;0.30;;;22.30;47.20;;;;;;5011691;28;20084;-57
2023/01/04 11:52:30;;;;;;;0.98;0.30;;;22.30;47.30;;;;;;5023515;28;20409;-56
2023/01/04 11:55:14;;;;;;;1.02;0.25;;;22.30;47.30;;;;;;5022831;28;20045;-54
2023/01/04 11:57:41;;;;;;;1.00;0.32;;;22.30;47.30;;;;;;5033864;28;20051;-55
2023/01/04 12:00:15;;;;;;;0.60;0.40;;;22.30;47.30;;;;;;5035548;28;20044;-56
2023/01/04 12:02:41;;;;;;;1.08;0.30;;;22.20;47.30;;;;;;5039760;28;20029;-58
2023/01/04 12:05:20;;;;;;;0.98;0.40;;;22.20;47.30;;;;;;5041038;28;20043;-54
2023/01/04 12:07:46;;;;;;;1.38;0.47;;;22.30;47.40;;;;;;5037945;28;20080;-53
2023/01/04 12:10:23;;;;;;;1.02;0.20;;;22.30;47.40;;;;;;5044520;28;20111;-56
2023/01/04 12:12:49;;;;;;;0.65;0.20;;;22.20;47.30;;;;;;5030374;28;20060;-56
2023/01/04 12:15:51;;;;;;;1.40;0.20;;;22.20;47.40;;;;;;5035076;28;20356;-53
2023/01/04 12:18:35;;;;;;;0.80;0.13;;;22.30;47.50;;;;;;5030192;28;20131;-54
2023/01/04 12:21:02;;;;;;;0.85;0.22;;;22.20;47.40;;;;;;5041875;28;20025;-58
2023/01/04 12:23:29;;;;;;;0.52;0.13;;;22.30;47.50;;;;;;5020922;28;20045;-56
2023/01/04 12:25:55;;;;;;;0.70;0.38;;;22.20;47.50;;;;;;5039558;28;20365;-56
2023/01/04 12:28:38;;;;;;;0.32;0.30;;;22.20;47.50;;;;;;5045618;28;20025;-55
2023/01/04 12:31:19;;;;;;;1.10;0.25;;;22.20;47.50;;;;;;5023905;28;20327;-49
2023/01/04 12:33:46;;;;;;;0.40;0.20;;;22.20;47.50;;;;;;5017113;28;20037;-59
2023/01/04 12:36:17;;;;;;;1.00;0.25;;;22.20;47.50;;;;;;4998287;28;20052;-58
2023/01/04 12:39:04;;;;;;;0.65;0.30;;;22.20;47.70;;;;;;5035898;28;20033;-56
2023/01/04 12:41:33;;;;;;;0.70;0.20;;;22.20;48.00;;;;;;5046250;28;20033;-58
2023/01/04 12:44:00;;;;;;;0.85;0.35;;;22.20;48.40;;;;;;5033465;28;20029;-57
2023/01/04 12:49:27;;;;;;;1.00;0.15;;;22.20;48.60;;;;;;5031844;28;20029;-58
2023/01/04 12:52:08;;;;;;;0.20;0.17;;;22.20;48.70;;;;;;5026683;28;20029;-53
2023/01/04 12:54:49;;;;;;;0.68;0.20;;;22.30;49.00;;;;;;5028951;28;20022;-50
2023/01/04 12:57:15;;;;;;;1.85;0.30;;;22.20;48.80;;;;;;5021544;28;20042;-52
2023/01/04 12:59:53;;;;;;;0.73;0.30;;;22.20;48.80;;;;;;5002542;28;20040;-54
2023/01/04 13:02:22;;;;;;;2.95;0.30;;;22.20;48.70;;;;;;5021554;28;20030;-59
2023/01/04 13:04:50;;;;;;;2.55;0.40;;;22.30;48.80;;;;;;5019532;28;20113;-55
2023/01/04 13:07:24;;;;;;;1.50;0.40;;;22.30;48.70;;;;;;5019482;28;20029;-59
2023/01/04 13:09:58;;;;;;;0.57;0.32;;;22.30;48.70;;;;;;5018084;28;20042;-56
2023/01/04 13:12:43;;;;;;;2.08;0.30;;;22.30;48.60;;;;;;5022241;28;20072;-56
2023/01/04 13:15:30;;;;;;;0.70;0.32;;;22.30;48.60;;;;;;5035796;28;20022;-59
2023/01/04 13:17:57;;;;;;;0.98;0.30;;;22.30;48.50;;;;;;5034499;28;20045;-56
2023/01/04 13:20:25;;;;;;;0.60;0.30;;;22.30;48.40;;;;;;5023205;28;20760;-55
2023/01/04 13:22:54;;;;;;;1.33;0.70;;;22.30;48.40;;;;;;5024394;28;20083;-53
2023/01/04 13:25:22;;;;;;;1.15;0.40;;;22.30;48.30;;;;;;5033614;28;20040;-50
2023/01/04 13:28:15;;;;;;;0.60;0.38;;;22.30;48.10;;;;;;5035667;28;20065;-55
2023/01/04 13:30:41;;;;;;;1.60;0.32;;;22.30;48.00;;;;;;5029728;28;20037;-52
2023/01/04 13:33:20;;;;;;;1.38;0.43;;;22.30;47.90;;;;;;5040358;28;20334;-56
2023/01/04 13:36:08;;;;;;;1.73;0.40;;;22.30;47.90;;;;;;5033026;28;20107;-52
2023/01/04 13:38:35;;;;;;;1.40;0.40;;;22.30;47.80;;;;;;5033494;28;20075;-52
2023/01/04 13:41:05;;;;;;;1.42;0.40;;;22.30;48.30;;;;;;5035796;28;20025;-55
2023/01/04 13:43:43;;;;;;;1.17;0.30;;;22.30;47.70;;;;;;5038131;28;20066;-54
2023/01/04 13:46:17;;;;;;;0.35;0.10;;;22.30;47.60;;;;;;5034565;28;20061;-55
2023/01/04 13:48:46;;;;;;;;;;;22.30;47.60;;;;;;5035398;28;20109;-53
2023/01/04 13:51:34;;;;;;;0.82;0.30;;;22.30;47.50;;;;;;5034039;28;20004;-53
2023/01/04 13:54:02;;;;;;;0.70;0.50;;;22.30;48.10;;;;;;5033036;28;20041;-52
2023/01/04 13:56:31;;;;;;;2.22;0.45;;;22.30;47.50;;;;;;5027856;28;20055;-50
2023/01/04 13:58:57;;;;;;;1.02;0.25;;;22.30;47.50;;;;;;5051811;28;20341;-53
2023/01/04 14:01:30;;;;;;;0.60;0.30;;;22.30;48.00;;;;;;5036148;28;20053;-52
2023/01/04 14:03:59;;;;;;;0.95;0.40;;;22.30;47.40;;;;;;5035004;28;20099;-56
2023/01/04 14:06:38;;;;;;;0.63;0.30;;;22.30;47.30;;;;;;5023441;28;20039;-56